sensor_id;sensor_type;location;lat;lon;timestamp;P1;durP1;ratioP1;P2;durP2;ratioP2
73642;SDS011;61938;48.652;9.292;2024-03-07T00:00:10;57.50;;;28.38;;
73642;SDS011;61938;48.652;9.292;2024-03-07T00:02:44;56.70;;;25.35;;
73642;SDS011;61938;48.652;9.292;2024-03-07T00:05:11;55.90;;;25.52;;
73642;SDS011;61938;48.652;9.292;2024-03-07T00:07:37;57.15;;;27.73;;
73642;SDS011;61938;48.652;9.292;2024-03-07T00:10:03;54.20;;;25.52;;
73642;SDS011;61938;48.652;9.292;2024-03-07T00:12:32;59.92;;;27.38;;
73642;SDS011;61938;48.652;9.292;2024-03-07T00:15:02;62.65;;;28.05;;
73642;SDS011;61938;48.652;9.292;2024-03-07T00:17:28;53.03;;;25.58;;
73642;SDS011;61938;48.652;9.292;2024-03-07T00:19:54;60.00;;;28.73;;
73642;SDS011;61938;48.652;9.292;2024-03-07T00:22:19;59.55;;;28.20;;
73642;SDS011;61938;48.652;9.292;2024-03-07T00:24:45;60.92;;;27.15;;
73642;SDS011;61938;48.652;9.292;2024-03-07T00:27:12;64.90;;;27.88;;
73642;SDS011;61938;48.652;9.292;2024-03-07T00:29:39;59.00;;;27.25;;
73642;SDS011;61938;48.652;9.292;2024-03-07T00:32:05;63.15;;;28.08;;
73642;SDS011;61938;48.652;9.292;2024-03-07T00:34:31;57.33;;;27.20;;
73642;SDS011;61938;48.652;9.292;2024-03-07T00:36:57;57.92;;;27.30;;
73642;SDS011;61938;48.652;9.292;2024-03-07T00:39:24;51.22;;;25.27;;
73642;SDS011;61938;48.652;9.292;2024-03-07T00:41:50;57.67;;;25.55;;
73642;SDS011;61938;48.652;9.292;2024-03-07T00:44:15;58.13;;;27.42;;
73642;SDS011;61938;48.652;9.292;2024-03-07T00:46:41;56.78;;;26.83;;
73642;SDS011;61938;48.652;9.292;2024-03-07T00:49:06;55.20;;;26.17;;
73642;SDS011;61938;48.652;9.292;2024-03-07T00:51:32;67.75;;;28.67;;
73642;SDS011;61938;48.652;9.292;2024-03-07T00:53:57;57.70;;;28.10;;
73642;SDS011;61938;48.652;9.292;2024-03-07T00:56:23;58.75;;;28.02;;
73642;SDS011;61938;48.652;9.292;2024-03-07T00:58:48;63.58;;;29.45;;
73642;SDS011;61938;48.652;9.292;2024-03-07T01:01:15;73.15;;;30.95;;
73642;SDS011;61938;48.652;9.292;2024-03-07T01:03:41;59.88;;;28.25;;
73642;SDS011;61938;48.652;9.292;2024-03-07T01:06:06;63.47;;;29.70;;
73642;SDS011;61938;48.652;9.292;2024-03-07T01:08:34;66.05;;;30.70;;
73642;SDS011;61938;48.652;9.292;2024-03-07T01:11:01;63.38;;;28.55;;
73642;SDS011;61938;48.652;9.292;2024-03-07T01:13:34;64.70;;;30.33;;
73642;SDS011;61938;48.652;9.292;2024-03-07T01:16:06;68.57;;;29.63;;
73642;SDS011;61938;48.652;9.292;2024-03-07T01:18:32;55.85;;;28.52;;
73642;SDS011;61938;48.652;9.292;2024-03-07T01:20:58;62.58;;;30.50;;
73642;SDS011;61938;48.652;9.292;2024-03-07T01:23:28;68.13;;;30.58;;
73642;SDS011;61938;48.652;9.292;2024-03-07T01:25:57;65.13;;;31.45;;
73642;SDS011;61938;48.652;9.292;2024-03-07T01:28:23;74.57;;;32.38;;
73642;SDS011;61938;48.652;9.292;2024-03-07T01:30:50;67.60;;;31.13;;
73642;SDS011;61938;48.652;9.292;2024-03-07T01:33:18;75.40;;;32.40;;
73642;SDS011;61938;48.652;9.292;2024-03-07T01:35:44;72.38;;;32.70;;
73642;SDS011;61938;48.652;9.292;2024-03-07T01:38:10;73.40;;;33.15;;
73642;SDS011;61938;48.652;9.292;2024-03-07T01:40:38;72.20;;;33.58;;
73642;SDS011;61938;48.652;9.292;2024-03-07T01:43:04;72.60;;;33.17;;
73642;SDS011;61938;48.652;9.292;2024-03-07T01:45:38;68.75;;;32.35;;
73642;SDS011;61938;48.652;9.292;2024-03-07T01:48:08;72.70;;;33.70;;
73642;SDS011;61938;48.652;9.292;2024-03-07T01:50:37;72.90;;;34.13;;
73642;SDS011;61938;48.652;9.292;2024-03-07T01:53:03;72.82;;;34.22;;
73642;SDS011;61938;48.652;9.292;2024-03-07T01:55:31;74.68;;;34.20;;
73642;SDS011;61938;48.652;9.292;2024-03-07T01:57:59;82.88;;;35.60;;
73642;SDS011;61938;48.652;9.292;2024-03-07T02:00:26;71.20;;;33.72;;
73642;SDS011;61938;48.652;9.292;2024-03-07T02:02:53;76.47;;;34.42;;
73642;SDS011;61938;48.652;9.292;2024-03-07T02:05:19;72.55;;;34.28;;
73642;SDS011;61938;48.652;9.292;2024-03-07T02:07:45;73.82;;;35.10;;
73642;SDS011;61938;48.652;9.292;2024-03-07T02:10:11;80.22;;;35.60;;
73642;SDS011;61938;48.652;9.292;2024-03-07T02:12:36;80.43;;;36.42;;
73642;SDS011;61938;48.652;9.292;2024-03-07T02:15:02;81.53;;;37.03;;
73642;SDS011;61938;48.652;9.292;2024-03-07T02:17:28;77.22;;;34.95;;
73642;SDS011;61938;48.652;9.292;2024-03-07T02:19:53;78.90;;;35.67;;
73642;SDS011;61938;48.652;9.292;2024-03-07T02:22:19;71.70;;;34.85;;
73642;SDS011;61938;48.652;9.292;2024-03-07T02:24:45;76.80;;;35.42;;
73642;SDS011;61938;48.652;9.292;2024-03-07T02:27:11;86.72;;;37.35;;
73642;SDS011;61938;48.652;9.292;2024-03-07T02:29:37;83.30;;;35.90;;
73642;SDS011;61938;48.652;9.292;2024-03-07T02:32:03;71.40;;;34.42;;
73642;SDS011;61938;48.652;9.292;2024-03-07T02:34:29;74.00;;;35.20;;
73642;SDS011;61938;48.652;9.292;2024-03-07T02:36:55;78.55;;;34.80;;
73642;SDS011;61938;48.652;9.292;2024-03-07T02:39:20;73.75;;;34.97;;
73642;SDS011;61938;48.652;9.292;2024-03-07T02:41:47;73.78;;;33.65;;
73642;SDS011;61938;48.652;9.292;2024-03-07T02:44:15;76.03;;;35.25;;
73642;SDS011;61938;48.652;9.292;2024-03-07T02:46:41;75.70;;;34.00;;
73642;SDS011;61938;48.652;9.292;2024-03-07T02:49:07;74.53;;;34.17;;
73642;SDS011;61938;48.652;9.292;2024-03-07T02:51:33;78.22;;;36.17;;
73642;SDS011;61938;48.652;9.292;2024-03-07T02:53:58;77.22;;;36.13;;
73642;SDS011;61938;48.652;9.292;2024-03-07T02:56:24;78.38;;;36.53;;
73642;SDS011;61938;48.652;9.292;2024-03-07T02:58:50;86.40;;;35.10;;
73642;SDS011;61938;48.652;9.292;2024-03-07T03:01:16;79.38;;;37.05;;
73642;SDS011;61938;48.652;9.292;2024-03-07T03:03:42;76.05;;;35.10;;
73642;SDS011;61938;48.652;9.292;2024-03-07T03:06:08;75.40;;;34.80;;
73642;SDS011;61938;48.652;9.292;2024-03-07T03:08:34;87.47;;;35.85;;
73642;SDS011;61938;48.652;9.292;2024-03-07T03:11:00;80.97;;;35.28;;
73642;SDS011;61938;48.652;9.292;2024-03-07T03:13:26;79.38;;;35.08;;
73642;SDS011;61938;48.652;9.292;2024-03-07T03:15:55;69.50;;;33.03;;
73642;SDS011;61938;48.652;9.292;2024-03-07T03:18:21;85.15;;;36.17;;
73642;SDS011;61938;48.652;9.292;2024-03-07T03:20:48;76.85;;;34.10;;
73642;SDS011;61938;48.652;9.292;2024-03-07T03:23:14;69.72;;;33.88;;
73642;SDS011;61938;48.652;9.292;2024-03-07T03:25:40;75.03;;;34.30;;
73642;SDS011;61938;48.652;9.292;2024-03-07T03:28:06;78.47;;;34.55;;
73642;SDS011;61938;48.652;9.292;2024-03-07T03:30:35;79.32;;;36.10;;
73642;SDS011;61938;48.652;9.292;2024-03-07T03:33:04;73.68;;;33.28;;
73642;SDS011;61938;48.652;9.292;2024-03-07T03:35:31;80.53;;;34.38;;
73642;SDS011;61938;48.652;9.292;2024-03-07T03:37:57;75.15;;;34.20;;
73642;SDS011;61938;48.652;9.292;2024-03-07T03:40:22;79.88;;;34.67;;
73642;SDS011;61938;48.652;9.292;2024-03-07T03:42:49;84.07;;;36.38;;
73642;SDS011;61938;48.652;9.292;2024-03-07T03:45:14;73.05;;;33.30;;
73642;SDS011;61938;48.652;9.292;2024-03-07T03:47:40;77.13;;;35.83;;
73642;SDS011;61938;48.652;9.292;2024-03-07T03:50:08;81.93;;;35.53;;
73642;SDS011;61938;48.652;9.292;2024-03-07T03:52:34;76.78;;;33.72;;
73642;SDS011;61938;48.652;9.292;2024-03-07T03:55:01;71.82;;;32.92;;
73642;SDS011;61938;48.652;9.292;2024-03-07T03:57:28;75.88;;;34.22;;
73642;SDS011;61938;48.652;9.292;2024-03-07T03:59:58;80.82;;;35.08;;
73642;SDS011;61938;48.652;9.292;2024-03-07T04:02:24;71.57;;;32.22;;
73642;SDS011;61938;48.652;9.292;2024-03-07T04:04:51;74.78;;;32.17;;
73642;SDS011;61938;48.652;9.292;2024-03-07T04:07:17;84.78;;;36.50;;
73642;SDS011;61938;48.652;9.292;2024-03-07T04:09:44;72.13;;;33.80;;
73642;SDS011;61938;48.652;9.292;2024-03-07T04:12:10;82.28;;;34.13;;
73642;SDS011;61938;48.652;9.292;2024-03-07T04:14:42;77.35;;;33.35;;
73642;SDS011;61938;48.652;9.292;2024-03-07T04:17:11;73.45;;;33.17;;
73642;SDS011;61938;48.652;9.292;2024-03-07T04:19:40;80.82;;;34.40;;
73642;SDS011;61938;48.652;9.292;2024-03-07T04:22:06;78.15;;;34.42;;
73642;SDS011;61938;48.652;9.292;2024-03-07T04:24:33;82.07;;;33.95;;
73642;SDS011;61938;48.652;9.292;2024-03-07T04:27:00;80.65;;;35.30;;
73642;SDS011;61938;48.652;9.292;2024-03-07T04:29:32;82.10;;;35.60;;
73642;SDS011;61938;48.652;9.292;2024-03-07T04:31:58;81.05;;;32.75;;
73642;SDS011;61938;48.652;9.292;2024-03-07T04:34:26;88.20;;;35.38;;
73642;SDS011;61938;48.652;9.292;2024-03-07T04:36:52;77.88;;;34.50;;
73642;SDS011;61938;48.652;9.292;2024-03-07T04:39:18;80.68;;;35.88;;
73642;SDS011;61938;48.652;9.292;2024-03-07T04:41:53;82.18;;;35.17;;
73642;SDS011;61938;48.652;9.292;2024-03-07T04:44:19;76.70;;;34.67;;
73642;SDS011;61938;48.652;9.292;2024-03-07T04:46:48;77.45;;;33.60;;
73642;SDS011;61938;48.652;9.292;2024-03-07T04:49:15;78.75;;;33.40;;
73642;SDS011;61938;48.652;9.292;2024-03-07T04:51:40;78.72;;;33.67;;
73642;SDS011;61938;48.652;9.292;2024-03-07T04:54:06;75.18;;;33.45;;
73642;SDS011;61938;48.652;9.292;2024-03-07T04:56:31;76.32;;;34.03;;
73642;SDS011;61938;48.652;9.292;2024-03-07T04:58:57;74.47;;;32.33;;
73642;SDS011;61938;48.652;9.292;2024-03-07T05:01:23;80.70;;;34.47;;
73642;SDS011;61938;48.652;9.292;2024-03-07T05:03:50;72.38;;;33.65;;
73642;SDS011;61938;48.652;9.292;2024-03-07T05:06:16;78.70;;;32.67;;
73642;SDS011;61938;48.652;9.292;2024-03-07T05:08:43;71.88;;;32.33;;
73642;SDS011;61938;48.652;9.292;2024-03-07T05:11:08;70.80;;;31.52;;
73642;SDS011;61938;48.652;9.292;2024-03-07T05:13:35;79.70;;;33.25;;
73642;SDS011;61938;48.652;9.292;2024-03-07T05:16:02;73.18;;;31.67;;
73642;SDS011;61938;48.652;9.292;2024-03-07T05:18:27;74.00;;;31.00;;
73642;SDS011;61938;48.652;9.292;2024-03-07T05:20:53;73.60;;;31.67;;
73642;SDS011;61938;48.652;9.292;2024-03-07T05:23:19;73.18;;;29.65;;
73642;SDS011;61938;48.652;9.292;2024-03-07T05:25:45;72.13;;;31.42;;
73642;SDS011;61938;48.652;9.292;2024-03-07T05:28:11;73.80;;;30.63;;
73642;SDS011;61938;48.652;9.292;2024-03-07T05:30:36;75.43;;;29.95;;
73642;SDS011;61938;48.652;9.292;2024-03-07T05:33:02;76.30;;;31.80;;
73642;SDS011;61938;48.652;9.292;2024-03-07T05:35:28;74.85;;;31.42;;
73642;SDS011;61938;48.652;9.292;2024-03-07T05:37:56;69.75;;;30.38;;
73642;SDS011;61938;48.652;9.292;2024-03-07T05:40:23;71.38;;;31.40;;
73642;SDS011;61938;48.652;9.292;2024-03-07T05:42:48;74.22;;;32.03;;
73642;SDS011;61938;48.652;9.292;2024-03-07T05:45:14;74.47;;;30.75;;
73642;SDS011;61938;48.652;9.292;2024-03-07T05:47:40;65.78;;;29.70;;
73642;SDS011;61938;48.652;9.292;2024-03-07T05:50:05;62.42;;;28.52;;
73642;SDS011;61938;48.652;9.292;2024-03-07T05:52:34;71.00;;;28.65;;
73642;SDS011;61938;48.652;9.292;2024-03-07T05:55:07;71.88;;;30.60;;
73642;SDS011;61938;48.652;9.292;2024-03-07T05:57:32;69.47;;;28.55;;
73642;SDS011;61938;48.652;9.292;2024-03-07T05:59:58;65.97;;;29.70;;
73642;SDS011;61938;48.652;9.292;2024-03-07T06:02:24;64.65;;;28.75;;
73642;SDS011;61938;48.652;9.292;2024-03-07T06:04:49;72.00;;;30.83;;
73642;SDS011;61938;48.652;9.292;2024-03-07T06:07:15;73.35;;;32.28;;
73642;SDS011;61938;48.652;9.292;2024-03-07T06:09:40;69.70;;;31.50;;
73642;SDS011;61938;48.652;9.292;2024-03-07T06:12:06;77.70;;;30.52;;
73642;SDS011;61938;48.652;9.292;2024-03-07T06:14:33;67.53;;;29.60;;
73642;SDS011;61938;48.652;9.292;2024-03-07T06:16:59;69.63;;;29.92;;
73642;SDS011;61938;48.652;9.292;2024-03-07T06:19:25;64.30;;;28.27;;
73642;SDS011;61938;48.652;9.292;2024-03-07T06:21:51;65.03;;;29.88;;
73642;SDS011;61938;48.652;9.292;2024-03-07T06:24:18;59.35;;;26.40;;
73642;SDS011;61938;48.652;9.292;2024-03-07T06:26:44;62.25;;;28.45;;
73642;SDS011;61938;48.652;9.292;2024-03-07T06:29:24;64.28;;;28.50;;
73642;SDS011;61938;48.652;9.292;2024-03-07T06:31:49;67.95;;;28.20;;
73642;SDS011;61938;48.652;9.292;2024-03-07T06:34:15;63.92;;;29.00;;
73642;SDS011;61938;48.652;9.292;2024-03-07T06:36:40;68.88;;;28.08;;
73642;SDS011;61938;48.652;9.292;2024-03-07T06:39:06;60.08;;;27.23;;
73642;SDS011;61938;48.652;9.292;2024-03-07T06:41:35;72.18;;;29.38;;
73642;SDS011;61938;48.652;9.292;2024-03-07T06:44:01;69.85;;;30.83;;
73642;SDS011;61938;48.652;9.292;2024-03-07T06:46:27;62.08;;;27.50;;
73642;SDS011;61938;48.652;9.292;2024-03-07T06:48:53;71.13;;;29.92;;
73642;SDS011;61938;48.652;9.292;2024-03-07T06:51:20;66.20;;;29.75;;
73642;SDS011;61938;48.652;9.292;2024-03-07T06:53:47;63.63;;;29.17;;
73642;SDS011;61938;48.652;9.292;2024-03-07T06:56:13;72.43;;;27.98;;
73642;SDS011;61938;48.652;9.292;2024-03-07T06:58:39;62.85;;;28.25;;
73642;SDS011;61938;48.652;9.292;2024-03-07T07:01:05;62.80;;;28.20;;
73642;SDS011;61938;48.652;9.292;2024-03-07T07:03:34;70.45;;;29.73;;
73642;SDS011;61938;48.652;9.292;2024-03-07T07:06:00;62.15;;;27.80;;
73642;SDS011;61938;48.652;9.292;2024-03-07T07:08:26;63.70;;;27.45;;
73642;SDS011;61938;48.652;9.292;2024-03-07T07:10:54;65.65;;;28.85;;
73642;SDS011;61938;48.652;9.292;2024-03-07T07:13:20;59.78;;;26.85;;
73642;SDS011;61938;48.652;9.292;2024-03-07T07:15:46;63.42;;;27.77;;
73642;SDS011;61938;48.652;9.292;2024-03-07T07:18:13;64.70;;;28.63;;
73642;SDS011;61938;48.652;9.292;2024-03-07T07:20:39;65.90;;;29.42;;
73642;SDS011;61938;48.652;9.292;2024-03-07T07:23:04;63.67;;;27.52;;
73642;SDS011;61938;48.652;9.292;2024-03-07T07:25:30;70.47;;;29.58;;
73642;SDS011;61938;48.652;9.292;2024-03-07T07:27:56;66.75;;;29.17;;
73642;SDS011;61938;48.652;9.292;2024-03-07T07:30:22;65.43;;;29.13;;
73642;SDS011;61938;48.652;9.292;2024-03-07T07:32:49;64.93;;;28.40;;
73642;SDS011;61938;48.652;9.292;2024-03-07T07:35:18;63.03;;;27.45;;
73642;SDS011;61938;48.652;9.292;2024-03-07T07:37:46;64.38;;;28.13;;
73642;SDS011;61938;48.652;9.292;2024-03-07T07:40:17;62.67;;;27.10;;
73642;SDS011;61938;48.652;9.292;2024-03-07T07:42:44;58.65;;;26.38;;
73642;SDS011;61938;48.652;9.292;2024-03-07T07:45:11;59.10;;;27.27;;
73642;SDS011;61938;48.652;9.292;2024-03-07T07:48:11;62.13;;;28.08;;
73642;SDS011;61938;48.652;9.292;2024-03-07T07:52:56;63.42;;;27.63;;
73642;SDS011;61938;48.652;9.292;2024-03-07T07:55:26;60.03;;;28.02;;
73642;SDS011;61938;48.652;9.292;2024-03-07T07:57:56;60.70;;;26.73;;
73642;SDS011;61938;48.652;9.292;2024-03-07T08:00:23;66.55;;;27.80;;
73642;SDS011;61938;48.652;9.292;2024-03-07T08:02:51;61.60;;;27.55;;
73642;SDS011;61938;48.652;9.292;2024-03-07T08:05:21;63.95;;;29.63;;
73642;SDS011;61938;48.652;9.292;2024-03-07T08:07:51;60.08;;;26.48;;
73642;SDS011;61938;48.652;9.292;2024-03-07T08:10:23;69.38;;;29.45;;
73642;SDS011;61938;48.652;9.292;2024-03-07T08:12:49;65.82;;;27.88;;
73642;SDS011;61938;48.652;9.292;2024-03-07T08:15:15;62.42;;;27.25;;
73642;SDS011;61938;48.652;9.292;2024-03-07T08:17:44;64.38;;;29.58;;
73642;SDS011;61938;48.652;9.292;2024-03-07T08:20:15;60.38;;;27.50;;
73642;SDS011;61938;48.652;9.292;2024-03-07T08:25:12;70.00;;;29.40;;
73642;SDS011;61938;48.652;9.292;2024-03-07T08:27:39;70.22;;;30.00;;
73642;SDS011;61938;48.652;9.292;2024-03-07T08:30:06;61.97;;;26.63;;
73642;SDS011;61938;48.652;9.292;2024-03-07T08:32:37;65.68;;;27.48;;
73642;SDS011;61938;48.652;9.292;2024-03-07T08:35:07;67.28;;;28.35;;
73642;SDS011;61938;48.652;9.292;2024-03-07T08:37:36;69.25;;;29.90;;
73642;SDS011;61938;48.652;9.292;2024-03-07T08:40:03;65.10;;;29.55;;
73642;SDS011;61938;48.652;9.292;2024-03-07T08:42:30;66.30;;;29.35;;
73642;SDS011;61938;48.652;9.292;2024-03-07T08:44:58;66.10;;;28.65;;
73642;SDS011;61938;48.652;9.292;2024-03-07T08:47:31;65.75;;;29.42;;
73642;SDS011;61938;48.652;9.292;2024-03-07T08:50:03;68.13;;;29.52;;
73642;SDS011;61938;48.652;9.292;2024-03-07T08:52:33;73.55;;;31.83;;
73642;SDS011;61938;48.652;9.292;2024-03-07T08:55:02;72.50;;;31.20;;
73642;SDS011;61938;48.652;9.292;2024-03-07T08:57:28;76.28;;;31.90;;
73642;SDS011;61938;48.652;9.292;2024-03-07T08:59:53;75.32;;;30.67;;
73642;SDS011;61938;48.652;9.292;2024-03-07T09:02:19;72.93;;;31.73;;
73642;SDS011;61938;48.652;9.292;2024-03-07T09:04:44;68.55;;;30.35;;
73642;SDS011;61938;48.652;9.292;2024-03-07T09:07:11;73.38;;;33.45;;
73642;SDS011;61938;48.652;9.292;2024-03-07T09:09:38;79.15;;;32.00;;
73642;SDS011;61938;48.652;9.292;2024-03-07T09:12:03;81.45;;;33.67;;
73642;SDS011;61938;48.652;9.292;2024-03-07T09:14:31;77.60;;;33.47;;
73642;SDS011;61938;48.652;9.292;2024-03-07T09:16:56;72.88;;;32.72;;
73642;SDS011;61938;48.652;9.292;2024-03-07T09:19:22;78.32;;;33.67;;
73642;SDS011;61938;48.652;9.292;2024-03-07T09:21:51;81.50;;;35.40;;
73642;SDS011;61938;48.652;9.292;2024-03-07T09:24:18;79.40;;;34.60;;
73642;SDS011;61938;48.652;9.292;2024-03-07T09:26:46;78.85;;;33.78;;
73642;SDS011;61938;48.652;9.292;2024-03-07T09:29:17;78.20;;;32.83;;
73642;SDS011;61938;48.652;9.292;2024-03-07T09:31:43;89.30;;;35.83;;
73642;SDS011;61938;48.652;9.292;2024-03-07T09:34:09;87.18;;;35.88;;
73642;SDS011;61938;48.652;9.292;2024-03-07T09:36:35;80.03;;;32.97;;
73642;SDS011;61938;48.652;9.292;2024-03-07T09:39:00;75.43;;;33.22;;
73642;SDS011;61938;48.652;9.292;2024-03-07T09:41:26;77.82;;;33.20;;
73642;SDS011;61938;48.652;9.292;2024-03-07T09:43:52;86.80;;;35.65;;
73642;SDS011;61938;48.652;9.292;2024-03-07T09:46:21;77.60;;;33.40;;
73642;SDS011;61938;48.652;9.292;2024-03-07T09:48:47;76.45;;;34.70;;
73642;SDS011;61938;48.652;9.292;2024-03-07T09:51:15;83.50;;;34.17;;
73642;SDS011;61938;48.652;9.292;2024-03-07T09:53:44;77.35;;;32.65;;
73642;SDS011;61938;48.652;9.292;2024-03-07T09:56:11;78.28;;;32.50;;
73642;SDS011;61938;48.652;9.292;2024-03-07T09:58:38;78.88;;;32.03;;
73642;SDS011;61938;48.652;9.292;2024-03-07T10:01:06;78.90;;;32.63;;
73642;SDS011;61938;48.652;9.292;2024-03-07T10:03:35;75.88;;;31.42;;
73642;SDS011;61938;48.652;9.292;2024-03-07T10:06:00;75.57;;;31.45;;
73642;SDS011;61938;48.652;9.292;2024-03-07T10:08:26;70.25;;;30.80;;
73642;SDS011;61938;48.652;9.292;2024-03-07T10:10:54;77.15;;;31.20;;
73642;SDS011;61938;48.652;9.292;2024-03-07T10:13:21;81.57;;;31.58;;
73642;SDS011;61938;48.652;9.292;2024-03-07T10:15:56;80.47;;;31.65;;
73642;SDS011;61938;48.652;9.292;2024-03-07T10:18:25;75.00;;;32.53;;
73642;SDS011;61938;48.652;9.292;2024-03-07T10:20:55;76.32;;;33.15;;
73642;SDS011;61938;48.652;9.292;2024-03-07T10:23:24;72.15;;;31.73;;
73642;SDS011;61938;48.652;9.292;2024-03-07T10:25:50;80.00;;;32.97;;
73642;SDS011;61938;48.652;9.292;2024-03-07T10:28:18;75.50;;;31.17;;
73642;SDS011;61938;48.652;9.292;2024-03-07T10:30:46;78.63;;;31.75;;
73642;SDS011;61938;48.652;9.292;2024-03-07T10:33:12;73.50;;;32.40;;
73642;SDS011;61938;48.652;9.292;2024-03-07T10:35:38;69.75;;;29.90;;
73642;SDS011;61938;48.652;9.292;2024-03-07T10:38:04;76.70;;;30.02;;
73642;SDS011;61938;48.652;9.292;2024-03-07T10:40:31;72.40;;;30.75;;
73642;SDS011;61938;48.652;9.292;2024-03-07T10:42:58;73.18;;;31.73;;
73642;SDS011;61938;48.652;9.292;2024-03-07T10:45:28;79.05;;;31.13;;
73642;SDS011;61938;48.652;9.292;2024-03-07T10:47:56;70.38;;;29.58;;
73642;SDS011;61938;48.652;9.292;2024-03-07T11:01:57;86.10;;;31.42;;
73642;SDS011;61938;48.652;9.292;2024-03-07T11:04:31;71.07;;;28.05;;
73642;SDS011;61938;48.652;9.292;2024-03-07T11:06:58;73.88;;;29.10;;
73642;SDS011;61938;48.652;9.292;2024-03-07T11:09:23;74.78;;;30.20;;
73642;SDS011;61938;48.652;9.292;2024-03-07T11:11:54;65.63;;;27.02;;
73642;SDS011;61938;48.652;9.292;2024-03-07T11:14:21;71.00;;;29.35;;
73642;SDS011;61938;48.652;9.292;2024-03-07T11:16:48;73.43;;;29.95;;
73642;SDS011;61938;48.652;9.292;2024-03-07T11:19:25;71.10;;;27.88;;
73642;SDS011;61938;48.652;9.292;2024-03-07T11:21:55;75.80;;;29.35;;
73642;SDS011;61938;48.652;9.292;2024-03-07T11:24:27;69.45;;;28.15;;
73642;SDS011;61938;48.652;9.292;2024-03-07T11:26:55;78.95;;;30.95;;
73642;SDS011;61938;48.652;9.292;2024-03-07T11:29:40;68.10;;;26.52;;
73642;SDS011;61938;48.652;9.292;2024-03-07T11:32:10;73.38;;;29.67;;
73642;SDS011;61938;48.652;9.292;2024-03-07T11:34:43;70.05;;;27.50;;
73642;SDS011;61938;48.652;9.292;2024-03-07T11:37:17;72.30;;;28.95;;
73642;SDS011;61938;48.652;9.292;2024-03-07T11:39:47;71.85;;;30.25;;
73642;SDS011;61938;48.652;9.292;2024-03-07T11:42:24;73.40;;;29.65;;
73642;SDS011;61938;48.652;9.292;2024-03-07T11:44:54;68.88;;;28.55;;
73642;SDS011;61938;48.652;9.292;2024-03-07T11:47:26;68.22;;;30.15;;
73642;SDS011;61938;48.652;9.292;2024-03-07T11:49:55;75.80;;;31.42;;
73642;SDS011;61938;48.652;9.292;2024-03-07T11:52:31;71.68;;;29.02;;
73642;SDS011;61938;48.652;9.292;2024-03-07T11:54:57;70.00;;;31.60;;
73642;SDS011;61938;48.652;9.292;2024-03-07T11:59:58;73.28;;;31.35;;
73642;SDS011;61938;48.652;9.292;2024-03-07T12:02:26;79.35;;;32.33;;
73642;SDS011;61938;48.652;9.292;2024-03-07T12:04:52;77.50;;;33.13;;
73642;SDS011;61938;48.652;9.292;2024-03-07T12:07:18;77.13;;;32.38;;
73642;SDS011;61938;48.652;9.292;2024-03-07T12:09:47;91.75;;;34.35;;
73642;SDS011;61938;48.652;9.292;2024-03-07T12:12:18;73.03;;;33.88;;
73642;SDS011;61938;48.652;9.292;2024-03-07T12:14:46;86.32;;;35.33;;
73642;SDS011;61938;48.652;9.292;2024-03-07T12:17:13;84.57;;;35.10;;
73642;SDS011;61938;48.652;9.292;2024-03-07T12:19:41;74.88;;;33.42;;
73642;SDS011;61938;48.652;9.292;2024-03-07T12:22:07;89.18;;;36.55;;
73642;SDS011;61938;48.652;9.292;2024-03-07T12:24:40;80.85;;;36.65;;
73642;SDS011;61938;48.652;9.292;2024-03-07T12:27:12;75.65;;;33.83;;
73642;SDS011;61938;48.652;9.292;2024-03-07T12:29:41;88.05;;;37.30;;
73642;SDS011;61938;48.652;9.292;2024-03-07T12:32:12;76.32;;;34.08;;
73642;SDS011;61938;48.652;9.292;2024-03-07T12:34:42;85.70;;;37.15;;
73642;SDS011;61938;48.652;9.292;2024-03-07T12:37:11;79.05;;;35.80;;
73642;SDS011;61938;48.652;9.292;2024-03-07T12:39:40;79.47;;;35.30;;
73642;SDS011;61938;48.652;9.292;2024-03-07T12:42:17;73.93;;;34.20;;
73642;SDS011;61938;48.652;9.292;2024-03-07T12:44:45;78.85;;;33.78;;
73642;SDS011;61938;48.652;9.292;2024-03-07T12:47:14;87.05;;;36.58;;
73642;SDS011;61938;48.652;9.292;2024-03-07T12:49:40;84.43;;;33.65;;
73642;SDS011;61938;48.652;9.292;2024-03-07T12:52:10;75.95;;;34.60;;
73642;SDS011;61938;48.652;9.292;2024-03-07T12:54:40;75.50;;;33.97;;
73642;SDS011;61938;48.652;9.292;2024-03-07T12:57:11;76.38;;;34.60;;
73642;SDS011;61938;48.652;9.292;2024-03-07T12:59:40;81.15;;;35.40;;
73642;SDS011;61938;48.652;9.292;2024-03-07T13:02:09;76.97;;;34.33;;
73642;SDS011;61938;48.652;9.292;2024-03-07T13:04:36;75.68;;;35.40;;
73642;SDS011;61938;48.652;9.292;2024-03-07T13:07:05;77.28;;;34.50;;
73642;SDS011;61938;48.652;9.292;2024-03-07T13:09:31;72.88;;;33.85;;
73642;SDS011;61938;48.652;9.292;2024-03-07T13:11:58;79.53;;;33.40;;
73642;SDS011;61938;48.652;9.292;2024-03-07T13:14:25;74.63;;;35.25;;
73642;SDS011;61938;48.652;9.292;2024-03-07T13:16:57;76.57;;;34.67;;
73642;SDS011;61938;48.652;9.292;2024-03-07T13:19:32;76.05;;;33.65;;
73642;SDS011;61938;48.652;9.292;2024-03-07T13:21:58;79.97;;;35.30;;
73642;SDS011;61938;48.652;9.292;2024-03-07T13:24:24;83.32;;;36.17;;
73642;SDS011;61938;48.652;9.292;2024-03-07T13:26:52;73.10;;;35.17;;
73642;SDS011;61938;48.652;9.292;2024-03-07T13:29:18;75.35;;;33.97;;
73642;SDS011;61938;48.652;9.292;2024-03-07T13:31:49;81.05;;;36.75;;
73642;SDS011;61938;48.652;9.292;2024-03-07T13:34:16;71.00;;;33.13;;
73642;SDS011;61938;48.652;9.292;2024-03-07T13:36:42;72.80;;;33.95;;
73642;SDS011;61938;48.652;9.292;2024-03-07T13:39:09;70.55;;;33.38;;
73642;SDS011;61938;48.652;9.292;2024-03-07T13:41:40;73.15;;;33.45;;
73642;SDS011;61938;48.652;9.292;2024-03-07T13:44:07;65.43;;;31.25;;
73642;SDS011;61938;48.652;9.292;2024-03-07T13:46:33;69.63;;;32.10;;
73642;SDS011;61938;48.652;9.292;2024-03-07T13:49:02;65.75;;;32.30;;
73642;SDS011;61938;48.652;9.292;2024-03-07T13:51:38;70.05;;;31.73;;
73642;SDS011;61938;48.652;9.292;2024-03-07T13:54:14;70.80;;;30.60;;
73642;SDS011;61938;48.652;9.292;2024-03-07T13:57:06;68.30;;;33.90;;
73642;SDS011;61938;48.652;9.292;2024-03-07T13:59:56;66.95;;;31.05;;
73642;SDS011;61938;48.652;9.292;2024-03-07T14:02:47;67.78;;;31.73;;
73642;SDS011;61938;48.652;9.292;2024-03-07T14:05:51;66.65;;;31.15;;
73642;SDS011;61938;48.652;9.292;2024-03-07T14:11:21;66.03;;;31.50;;
73642;SDS011;61938;48.652;9.292;2024-03-07T14:14:09;66.65;;;31.35;;
73642;SDS011;61938;48.652;9.292;2024-03-07T14:25:56;62.80;;;32.42;;
73642;SDS011;61938;48.652;9.292;2024-03-07T14:28:39;65.28;;;32.33;;
73642;SDS011;61938;48.652;9.292;2024-03-07T14:31:14;79.18;;;35.60;;
73642;SDS011;61938;48.652;9.292;2024-03-07T14:36:23;79.90;;;37.30;;
73642;SDS011;61938;48.652;9.292;2024-03-07T14:41:45;63.20;;;30.73;;
73642;SDS011;61938;48.652;9.292;2024-03-07T14:44:16;67.63;;;32.22;;
73642;SDS011;61938;48.652;9.292;2024-03-07T14:46:45;70.82;;;32.78;;
73642;SDS011;61938;48.652;9.292;2024-03-07T14:49:14;75.30;;;31.80;;
73642;SDS011;61938;48.652;9.292;2024-03-07T14:51:42;70.53;;;32.60;;
73642;SDS011;61938;48.652;9.292;2024-03-07T14:54:07;69.45;;;32.15;;
73642;SDS011;61938;48.652;9.292;2024-03-07T14:56:34;65.80;;;30.25;;
73642;SDS011;61938;48.652;9.292;2024-03-07T14:58:59;64.32;;;31.95;;
73642;SDS011;61938;48.652;9.292;2024-03-07T15:01:28;66.22;;;31.98;;